createdAt,value
2023-05-25T00:00:15.626Z,2.75
2023-05-25T00:02:47.450Z,3.05
2023-05-25T00:05:24.409Z,2.62
2023-05-25T00:08:15.445Z,2.70
2023-05-25T00:13:10.735Z,2.37
2023-05-25T00:15:38.879Z,2.77
2023-05-25T00:18:06.991Z,2.70
2023-05-25T00:20:35.732Z,2.83
2023-05-25T00:23:05.285Z,2.85
2023-05-25T00:25:33.303Z,2.98
2023-05-25T00:28:03.228Z,2.70
2023-05-25T00:30:31.543Z,2.75
2023-05-25T00:33:01.563Z,3.08
2023-05-25T00:35:29.875Z,2.80
2023-05-25T00:37:57.245Z,2.75
2023-05-25T00:40:25.429Z,3.12
2023-05-25T00:42:53.763Z,2.85
2023-05-25T00:45:21.732Z,2.83
2023-05-25T00:47:52.378Z,2.72
2023-05-25T00:50:25.909Z,2.80
2023-05-25T00:52:54.493Z,3.08
2023-05-25T00:57:52.013Z,2.87
2023-05-25T01:00:20.880Z,2.90
2023-05-25T01:02:52.844Z,2.98
2023-05-25T01:05:27.545Z,2.83
2023-05-25T01:07:59.535Z,2.95
2023-05-25T01:10:33.628Z,3.00
2023-05-25T01:13:03.197Z,2.55
2023-05-25T01:15:32.261Z,3.08
2023-05-25T01:18:01.446Z,3.30
2023-05-25T01:20:30.400Z,3.55
2023-05-25T01:23:12.741Z,3.72
2023-05-25T01:25:46.246Z,4.10
2023-05-25T01:28:29.058Z,3.98
2023-05-25T01:31:00.113Z,3.75
2023-05-25T01:39:00.412Z,3.35
2023-05-25T01:41:29.790Z,3.70
2023-05-25T01:44:00.510Z,3.60
2023-05-25T01:46:40.248Z,3.55
2023-05-25T01:49:36.871Z,3.55
2023-05-25T01:52:26.648Z,3.47
2023-05-25T01:57:22.260Z,3.55
2023-05-25T01:59:52.911Z,3.50
2023-05-25T02:02:34.382Z,3.10
2023-05-25T02:08:18.266Z,3.65
2023-05-25T02:10:55.234Z,4.05
2023-05-25T02:13:24.485Z,4.12
2023-05-25T02:15:59.820Z,4.05
2023-05-25T02:20:56.752Z,3.90
2023-05-25T02:23:29.037Z,3.67
2023-05-25T02:25:58.526Z,3.50
2023-05-25T02:28:27.600Z,3.83
2023-05-25T02:31:00.514Z,3.80
2023-05-25T02:33:39.327Z,6.12
2023-05-25T02:42:12.747Z,3.98
2023-05-25T02:44:48.580Z,3.60
2023-05-25T02:47:36.616Z,3.08
2023-05-25T02:50:06.048Z,3.27
2023-05-25T02:55:52.419Z,3.47
2023-05-25T02:58:24.091Z,3.40
2023-05-25T03:00:58.891Z,3.20
2023-05-25T03:03:32.556Z,3.12
2023-05-25T03:06:02.834Z,3.40
2023-05-25T03:08:31.384Z,3.67
2023-05-25T03:17:07.336Z,3.40
2023-05-25T03:22:34.899Z,3.75
2023-05-25T03:30:57.800Z,4.00
2023-05-25T03:36:33.452Z,3.77
2023-05-25T03:41:28.253Z,3.95
2023-05-25T03:43:56.667Z,4.12
2023-05-25T03:46:28.452Z,4.17
2023-05-25T03:51:24.341Z,3.72
2023-05-25T03:53:52.443Z,4.00
2023-05-25T03:56:21.045Z,4.53
2023-05-25T03:58:49.333Z,4.40
2023-05-25T04:01:20.520Z,4.15
2023-05-25T04:03:54.716Z,4.75
2023-05-25T04:06:25.092Z,4.50
2023-05-25T04:08:55.054Z,4.62
2023-05-25T04:11:24.838Z,4.75
2023-05-25T04:13:54.987Z,4.53
2023-05-25T04:16:28.646Z,4.65
2023-05-25T04:19:01.912Z,4.70
2023-05-25T04:21:30.833Z,4.20
2023-05-25T04:29:19.197Z,5.67
2023-05-25T04:32:05.830Z,4.72
2023-05-25T04:34:47.800Z,5.20
2023-05-25T04:37:18.581Z,4.80
2023-05-25T04:39:46.637Z,5.28
2023-05-25T04:42:14.735Z,5.62
2023-05-25T04:44:44.189Z,5.33
2023-05-25T04:47:12.230Z,4.53
2023-05-25T04:49:44.032Z,8.03
2023-05-25T04:52:26.114Z,6.45
2023-05-25T04:54:56.325Z,4.95
2023-05-25T04:57:26.335Z,4.78
2023-05-25T04:59:55.680Z,4.10
2023-05-25T05:02:28.099Z,4.65
2023-05-25T05:04:56.458Z,5.95
2023-05-25T05:07:24.508Z,7.55
2023-05-25T05:09:54.580Z,6.67
2023-05-25T05:12:24.972Z,5.00
2023-05-25T05:14:55.897Z,4.60
2023-05-25T05:17:25.841Z,4.42
2023-05-25T05:23:11.210Z,4.35
2023-05-25T05:25:41.126Z,4.22
2023-05-25T05:29:07.450Z,5.65
2023-05-25T06:13:26.907Z,3.60
2023-05-25T06:16:02.117Z,3.33
2023-05-25T06:18:30.482Z,3.62
2023-05-25T06:20:58.401Z,3.50
2023-05-25T06:23:27.874Z,12.40
2023-05-25T06:25:55.887Z,4.17
2023-05-25T06:28:23.851Z,4.03
2023-05-25T06:30:51.669Z,4.12
2023-05-25T06:33:19.625Z,3.50
2023-05-25T06:35:52.174Z,3.65
2023-05-25T06:38:20.504Z,3.70
2023-05-25T06:40:49.693Z,4.35
2023-05-25T07:29:00.065Z,3.83
2023-05-25T07:31:28.655Z,3.40
2023-05-25T07:33:57.221Z,3.62
2023-05-25T07:36:25.687Z,3.58
2023-05-25T07:38:53.962Z,3.25
2023-05-25T07:41:22.515Z,3.50
2023-05-25T07:43:51.986Z,3.33
2023-05-25T07:46:22.355Z,3.58
2023-05-25T07:48:52.761Z,3.65
2023-05-25T07:51:23.043Z,3.85
2023-05-25T07:53:52.162Z,3.50
2023-05-25T07:56:23.399Z,3.55
2023-05-25T07:58:53.596Z,3.77
2023-05-25T08:01:26.255Z,3.10
2023-05-25T08:03:58.340Z,3.22
2023-05-25T08:06:58.321Z,3.40
2023-05-25T08:09:40.789Z,3.17
2023-05-25T08:15:48.726Z,3.10
2023-05-25T08:18:31.342Z,2.72
2023-05-25T08:21:01.746Z,2.77
2023-05-25T08:23:39.673Z,3.15
2023-05-25T08:26:31.049Z,3.27
2023-05-25T08:28:51.708Z,4.40
2023-05-25T08:34:45.602Z,3.70
2023-05-25T08:37:29.460Z,3.40
2023-05-25T08:40:02.156Z,2.60
2023-05-25T08:42:44.606Z,3.35
2023-05-25T08:45:34.850Z,2.98
2023-05-25T08:48:08.051Z,2.92
2023-05-25T08:50:38.514Z,3.02
2023-05-25T08:53:11.496Z,2.37
2023-05-25T08:56:00.257Z,2.42
2023-05-25T08:58:34.603Z,2.50
2023-05-25T09:01:11.832Z,3.33
2023-05-25T09:07:10.185Z,2.87
2023-05-25T09:09:53.016Z,3.08
2023-05-25T09:15:57.413Z,3.12
2023-05-25T09:28:50.400Z,3.25
2023-05-25T09:31:24.304Z,2.98
2023-05-25T09:33:54.371Z,2.83
2023-05-25T09:36:33.116Z,3.02
2023-05-25T09:39:01.666Z,3.27
2023-05-25T09:41:30.004Z,2.50
2023-05-25T09:44:11.046Z,2.83
2023-05-25T09:46:38.869Z,2.65
2023-05-25T09:49:09.916Z,2.50
2023-05-25T09:51:38.827Z,2.30
2023-05-25T09:54:14.212Z,3.35
2023-05-25T09:56:46.039Z,2.80
2023-05-25T09:59:26.914Z,2.10
2023-05-25T10:02:08.155Z,2.75
2023-05-25T10:04:44.969Z,2.50
2023-05-25T10:07:29.725Z,2.58
2023-05-25T10:10:33.582Z,1.80
2023-05-25T10:13:11.097Z,4.85
2023-05-25T10:15:43.333Z,2.65
2023-05-25T10:18:27.076Z,2.20
2023-05-25T10:21:02.471Z,2.22
2023-05-25T10:23:43.721Z,2.50
2023-05-25T10:26:21.437Z,2.75
2023-05-25T10:28:51.999Z,2.75
2023-05-25T10:31:22.115Z,2.27
2023-05-25T10:33:54.080Z,2.08
2023-05-25T10:36:23.700Z,2.35
2023-05-25T10:38:53.117Z,2.30
2023-05-25T10:41:23.753Z,2.47
2023-05-25T10:43:53.224Z,3.10
2023-05-25T10:46:33.116Z,2.55
2023-05-25T10:49:01.994Z,2.58
2023-05-25T10:51:39.682Z,2.72
2023-05-25T10:54:08.040Z,2.00
2023-05-25T10:56:39.056Z,2.17
2023-05-25T10:59:22.862Z,2.85
2023-05-25T11:01:52.069Z,2.40
2023-05-25T11:04:22.412Z,2.27
2023-05-25T11:07:03.612Z,2.50
2023-05-25T11:09:32.247Z,2.42
2023-05-25T11:12:03.889Z,2.45
2023-05-25T11:14:44.774Z,3.25
2023-05-25T11:17:21.104Z,2.67
2023-05-25T11:19:54.788Z,2.67
2023-05-25T11:22:34.694Z,3.20
2023-05-25T11:25:24.049Z,3.50
2023-05-25T11:27:53.680Z,2.55
2023-05-25T11:30:27.018Z,2.72
2023-05-25T11:33:03.557Z,2.33
2023-05-25T11:38:40.933Z,2.95
2023-05-25T11:54:29.748Z,3.47
2023-05-25T11:57:04.291Z,2.50
2023-05-25T11:59:33.224Z,2.10
2023-05-25T12:02:53.107Z,2.70
2023-05-25T12:06:02.626Z,2.37
2023-05-25T12:08:36.099Z,2.67
2023-05-25T12:11:06.238Z,2.47
2023-05-25T12:30:31.420Z,2.77
2023-05-25T12:35:58.780Z,2.70
2023-05-25T12:41:24.862Z,2.52
2023-05-25T12:44:04.349Z,2.15
2023-05-25T12:46:40.025Z,2.40
2023-05-25T12:49:34.204Z,3.08
2023-05-25T12:52:04.187Z,2.45
2023-05-25T12:54:43.412Z,2.40
2023-05-25T13:00:17.886Z,2.98
2023-05-25T13:02:50.810Z,2.25
2023-05-25T13:05:25.208Z,2.50
2023-05-25T13:13:42.625Z,2.20
2023-05-25T13:16:13.176Z,2.35
2023-05-25T13:22:13.230Z,2.35
2023-05-25T13:24:47.536Z,1.95
2023-05-25T13:27:17.929Z,2.87
2023-05-25T13:33:21.742Z,2.20
2023-05-25T13:36:00.928Z,2.40
2023-05-25T13:38:30.984Z,1.98
2023-05-25T13:41:02.206Z,2.72
2023-05-25T13:43:39.456Z,2.62
2023-05-25T13:46:21.941Z,2.65
2023-05-25T13:48:44.226Z,2.37
2023-05-25T13:51:20.866Z,2.52
2023-05-25T13:53:49.831Z,2.40
2023-05-25T13:56:28.305Z,2.20
2023-05-25T13:59:05.004Z,2.30
2023-05-25T14:01:36.273Z,2.12
2023-05-25T14:04:31.450Z,2.25
2023-05-25T14:07:02.606Z,2.25
2023-05-25T14:09:31.455Z,2.90
2023-05-25T14:12:11.830Z,2.15
2023-05-25T14:14:40.968Z,2.10
2023-05-25T14:17:20.025Z,2.25
2023-05-25T14:19:49.297Z,2.25
2023-05-25T14:22:21.146Z,1.82
2023-05-25T14:24:52.399Z,2.30
2023-05-25T14:27:22.020Z,2.50
2023-05-25T14:29:52.010Z,2.08
2023-05-25T14:32:25.127Z,2.47
2023-05-25T14:34:56.037Z,2.00
2023-05-25T14:37:24.533Z,2.02
2023-05-25T14:39:52.879Z,2.30
2023-05-25T14:42:21.239Z,2.60
2023-05-25T14:44:50.939Z,2.40
2023-05-25T14:47:18.967Z,2.37
2023-05-25T14:49:47.989Z,2.00
2023-05-25T14:52:15.856Z,2.40
2023-05-25T14:54:44.422Z,2.20
2023-05-25T14:57:12.558Z,2.40
2023-05-25T14:59:40.745Z,2.20
2023-05-25T15:02:08.673Z,2.12
2023-05-25T15:04:38.166Z,2.00
2023-05-25T15:07:06.254Z,2.42
2023-05-25T15:09:36.126Z,2.20
2023-05-25T15:12:07.692Z,2.30
2023-05-25T15:14:37.497Z,2.27
2023-05-25T15:17:06.583Z,2.77
2023-05-25T15:19:34.858Z,2.20
2023-05-25T15:22:03.299Z,2.80
2023-05-25T15:24:31.419Z,2.12
2023-05-25T15:27:06.906Z,2.85
2023-05-25T15:29:42.274Z,2.45
2023-05-25T15:32:14.505Z,3.37
2023-05-25T15:35:14.618Z,2.52
2023-05-25T15:37:48.458Z,2.60
2023-05-25T15:43:02.174Z,2.65
2023-05-25T15:45:30.981Z,2.35
2023-05-25T15:47:59.692Z,2.33
2023-05-25T15:50:35.205Z,2.50
2023-05-25T15:53:04.526Z,2.60
2023-05-25T15:58:56.522Z,2.58
2023-05-25T16:01:24.869Z,2.87
2023-05-25T16:03:54.999Z,2.40
2023-05-25T16:06:23.244Z,2.52
2023-05-25T16:08:51.246Z,2.65
2023-05-25T16:11:20.381Z,2.62
2023-05-25T16:52:28.197Z,2.83
2023-05-25T16:54:58.509Z,2.95
2023-05-25T17:37:12.735Z,6.05
2023-05-25T17:39:45.632Z,4.17
2023-05-25T17:42:13.459Z,4.37
2023-05-25T17:44:41.955Z,4.12
2023-05-25T17:47:11.188Z,4.25
2023-05-25T17:49:39.336Z,4.35
2023-05-25T17:52:07.264Z,6.53
2023-05-25T17:54:49.265Z,5.25
2023-05-25T17:57:18.805Z,7.83
2023-05-25T17:59:46.914Z,6.75
2023-05-25T18:02:16.013Z,4.37
2023-05-25T18:04:44.075Z,4.53
2023-05-25T18:13:41.543Z,3.45
2023-05-25T18:16:17.553Z,4.05
2023-05-25T18:18:52.856Z,4.75
2023-05-25T18:21:28.931Z,3.58
2023-05-25T18:30:28.551Z,4.65
2023-05-25T18:32:56.568Z,5.08
2023-05-25T18:35:24.732Z,4.30
2023-05-25T18:37:52.528Z,4.60
2023-05-25T18:40:22.888Z,4.12
2023-05-25T18:42:53.674Z,4.00
2023-05-25T18:45:25.793Z,5.45
2023-05-25T18:48:00.656Z,4.62
2023-05-25T18:50:30.378Z,5.33
2023-05-25T18:52:59.239Z,5.67
2023-05-25T18:55:27.321Z,5.65
2023-05-25T18:57:57.840Z,5.65
2023-05-25T19:00:26.026Z,5.53
2023-05-25T19:02:54.460Z,5.37
2023-05-25T19:05:23.982Z,17.37
2023-05-25T19:07:59.165Z,12.45
2023-05-25T19:10:24.939Z,5.65
2023-05-25T19:12:54.981Z,4.50
2023-05-25T19:15:23.334Z,5.30
2023-05-25T19:17:51.757Z,5.15
2023-05-25T19:20:24.789Z,6.00
2023-05-25T19:23:00.175Z,5.80
2023-05-25T19:25:31.782Z,6.75
2023-05-25T19:28:02.031Z,5.15
2023-05-25T19:30:35.617Z,6.97
2023-05-25T19:33:07.924Z,4.75
2023-05-25T19:35:41.564Z,4.65
2023-05-25T19:38:17.302Z,5.53
2023-05-25T19:40:45.244Z,5.35
2023-05-25T19:43:14.851Z,5.30
2023-05-25T19:45:50.456Z,5.12
2023-05-25T19:48:24.242Z,4.80
2023-05-25T19:50:54.190Z,5.10
2023-05-25T19:53:22.009Z,5.60
2023-05-25T19:55:50.137Z,5.15
2023-05-25T19:58:18.022Z,5.17
2023-05-25T20:00:48.874Z,6.08
2023-05-25T20:03:20.643Z,6.15
2023-05-25T20:05:51.854Z,5.22
2023-05-25T20:08:20.408Z,5.50
2023-05-25T20:10:50.979Z,5.87
2023-05-25T20:13:18.934Z,4.92
2023-05-25T20:15:47.963Z,4.87
2023-05-25T20:18:20.720Z,4.78
2023-05-25T20:20:49.077Z,4.58
2023-05-25T20:23:17.168Z,4.55
2023-05-25T20:25:45.387Z,4.35
2023-05-25T20:28:14.152Z,4.78
2023-05-25T20:30:42.089Z,5.28
2023-05-25T20:33:13.274Z,5.05
2023-05-25T20:35:41.644Z,5.10
2023-05-25T20:38:09.789Z,4.80
2023-05-25T20:40:37.756Z,5.08
2023-05-25T20:43:05.782Z,4.83
2023-05-25T20:45:33.950Z,5.20
2023-05-25T20:48:05.175Z,5.40
2023-05-25T20:50:33.251Z,4.70
2023-05-25T20:53:01.758Z,4.67
2023-05-25T20:55:30.874Z,4.53
2023-05-25T20:58:01.412Z,4.30
2023-05-25T21:00:31.427Z,5.08
2023-05-25T21:02:59.787Z,4.72
2023-05-25T21:05:30.259Z,4.55
2023-05-25T21:07:59.091Z,4.50
2023-05-25T21:10:27.024Z,5.20
2023-05-25T21:12:57.816Z,4.55
2023-05-25T21:15:26.411Z,5.35
2023-05-25T21:17:54.196Z,4.95
2023-05-25T21:20:22.333Z,5.33
2023-05-25T21:22:50.515Z,5.87
2023-05-25T21:25:22.836Z,6.05
2023-05-25T21:27:58.683Z,5.97
2023-05-25T21:30:27.148Z,7.67
2023-05-25T21:32:55.006Z,6.62
2023-05-25T21:35:22.924Z,7.50
2023-05-25T21:37:51.048Z,6.03
2023-05-25T21:40:19.364Z,5.72
2023-05-25T21:42:51.313Z,5.05
2023-05-25T21:45:20.266Z,5.10
2023-05-25T21:47:48.431Z,5.67
2023-05-25T21:50:17.555Z,5.12
2023-05-25T21:52:47.530Z,5.70
2023-05-25T21:55:15.600Z,5.55
2023-05-25T21:57:43.372Z,5.15
2023-05-25T22:00:12.373Z,6.35
2023-05-25T22:02:41.177Z,5.22
2023-05-25T22:05:09.268Z,5.00
2023-05-25T22:07:37.021Z,5.28
2023-05-25T22:10:05.968Z,5.33
2023-05-25T22:12:34.017Z,5.12
2023-05-25T22:15:01.957Z,5.90
2023-05-25T22:17:29.742Z,5.53
2023-05-25T22:20:07.553Z,5.60
2023-05-25T22:22:28.205Z,5.87
2023-05-25T22:24:59.480Z,5.20
2023-05-25T22:27:27.400Z,4.95
2023-05-25T22:29:55.409Z,5.35
2023-05-25T22:32:23.151Z,5.60
2023-05-25T22:34:51.023Z,5.90
2023-05-25T22:37:18.793Z,5.85
2023-05-25T22:39:46.715Z,7.17
2023-05-25T22:42:14.636Z,6.15
2023-05-25T22:44:42.418Z,5.60
2023-05-25T22:47:10.220Z,5.85
2023-05-25T22:49:41.228Z,5.62
2023-05-25T22:52:09.630Z,5.75
2023-05-25T22:54:37.242Z,5.62
2023-05-25T22:57:08.155Z,5.65
2023-05-25T22:59:37.063Z,5.90
2023-05-25T23:02:05.245Z,5.70
2023-05-25T23:04:36.046Z,5.90
2023-05-25T23:07:04.319Z,5.95
2023-05-25T23:09:32.117Z,7.58
2023-05-25T23:12:00.014Z,7.25
2023-05-25T23:14:29.928Z,7.15
2023-05-25T23:16:57.713Z,6.62
2023-05-25T23:19:27.332Z,7.03
2023-05-25T23:21:57.870Z,6.95
2023-05-25T23:24:25.797Z,6.47
2023-05-25T23:26:53.550Z,7.55
2023-05-25T23:29:21.313Z,7.28
2023-05-25T23:31:49.119Z,7.50
2023-05-25T23:34:16.857Z,7.35
2023-05-25T23:36:45.414Z,6.20
2023-05-25T23:39:13.255Z,7.72
2023-05-25T23:41:41.158Z,8.10
2023-05-25T23:44:09.074Z,7.53
2023-05-25T23:46:37.076Z,7.25
2023-05-25T23:49:04.820Z,7.03
2023-05-25T23:51:32.811Z,6.45
2023-05-25T23:54:00.775Z,6.87
2023-05-25T23:56:28.715Z,5.85
2023-05-25T23:58:56.661Z,6.17
